Spean Bridge, United Kingdom
Current Conditions -  °F | °C
As of 5:20 PM on Thursday 23 Oct 2014 (Local Time) from EGPE Reporting Station
Rain Showers Rain Showers  
Wind Chill: 55°   Ceiling: Unl
Heat Index: 55°   Visibility: 6mi
Dew Point: 54°   Wind: 10mph
Humidity: 94%   Direction: 200°SSW
Pressure: 29.53"   Gusts: NA
Location:  56.91°N, 4.94°W
Report Text: EGPE 231620Z 20009KT 9999 -SHRA FEW012 FEW020CB SCT030 13/12 Q1000
Loading
Personal Weather Stations






























Interactive Weather Map
Tropical Storm Tracking
New forecast layout! Learn more

10-Day Weather Forecast

Advertisements
Track Severe Weather on mobile